Time;durP1;ratioP1;P1;durP2;ratioP2;P2;SDS_P1;SDS_P2;PMS_P1;PMS_P2;Temp;Humidity;BMP_temperature;BMP_pressure;BME280_temperature;BME280_humidity;BME280_pressure;Samples;Min_cycle;Max_cycle;Signal;HPM_P1;HPM_P2
2023/12/17 00:01:07;;;;;;;14.55;6.82;;;10.60;99.90;;;;;;4993141;28;20044;-60
2023/12/17 00:03:33;;;;;;;17.92;6.85;;;10.50;99.90;;;;;;4980799;28;20054;-59
2023/12/17 00:05:59;;;;;;;17.73;6.97;;;10.60;99.90;;;;;;5001378;28;20072;-60
2023/12/17 00:08:25;;;;;;;20.83;7.57;;;10.60;99.90;;;;;;5004179;28;20511;-60
2023/12/17 00:10:53;;;;;;;16.17;6.82;;;10.60;99.90;;;;;;5001748;28;20099;-60
2023/12/17 00:13:19;;;;;;;15.00;7.00;;;10.60;99.90;;;;;;5004586;28;20046;-60
2023/12/17 00:15:45;;;;;;;16.92;6.90;;;10.60;99.90;;;;;;5000671;28;20077;-60
2023/12/17 00:18:12;;;;;;;16.55;7.55;;;10.60;99.90;;;;;;5002168;28;20042;-59
2023/12/17 00:20:41;;;;;;;11.68;6.93;;;10.60;99.90;;;;;;5000951;28;20053;-60
2023/12/17 00:23:07;;;;;;;13.93;7.45;;;10.60;99.90;;;;;;4998304;28;20696;-60
2023/12/17 00:25:32;;;;;;;16.42;6.97;;;10.70;99.90;;;;;;4980562;28;20524;-60
2023/12/17 00:27:58;;;;;;;14.45;6.85;;;10.70;99.90;;;;;;4987126;28;20037;-60
2023/12/17 00:30:24;;;;;;;17.80;6.28;;;10.70;99.90;;;;;;5006113;28;20049;-60
2023/12/17 00:32:50;;;;;;;16.92;6.20;;;10.70;99.90;;;;;;5006303;28;20046;-60
2023/12/17 00:35:15;;;;;;;11.77;6.82;;;10.70;99.90;;;;;;5006294;28;20079;-59
2023/12/17 00:37:41;;;;;;;14.98;6.13;;;10.70;99.90;;;;;;4990670;28;20627;-59
2023/12/17 00:40:08;;;;;;;13.05;6.18;;;10.70;99.90;;;;;;4992017;28;20603;-60
2023/12/17 00:42:34;;;;;;;14.98;6.47;;;10.70;99.90;;;;;;5006829;28;20049;-60
2023/12/17 00:44:59;;;;;;;15.02;7.35;;;10.70;99.90;;;;;;5006929;28;20061;-60
2023/12/17 00:47:25;;;;;;;13.75;6.00;;;10.70;99.90;;;;;;5007055;28;20076;-59
2023/12/17 00:49:52;;;;;;;13.40;6.18;;;10.70;99.90;;;;;;5002419;28;20053;-60
2023/12/17 00:52:20;;;;;;;15.63;6.50;;;10.70;99.90;;;;;;5006865;28;20049;-60
2023/12/17 00:54:46;;;;;;;14.02;6.22;;;10.70;99.90;;;;;;5002543;28;20140;-59
2023/12/17 00:57:12;;;;;;;11.00;5.90;;;10.70;99.90;;;;;;5006452;28;20494;-60
2023/12/17 00:59:37;;;;;;;15.23;5.97;;;10.80;99.90;;;;;;5005949;28;20077;-59
2023/12/17 01:02:03;;;;;;;12.02;6.15;;;10.70;99.90;;;;;;5005663;28;20556;-60
2023/12/17 01:04:29;;;;;;;12.02;6.30;;;10.70;99.90;;;;;;5004397;28;20068;-59
2023/12/17 01:06:55;;;;;;;16.20;6.97;;;10.70;99.90;;;;;;5005630;28;20045;-60
2023/12/17 01:09:21;;;;;;;15.65;6.00;;;10.70;99.90;;;;;;4984838;28;20038;-60
2023/12/17 01:11:46;;;;;;;12.25;5.82;;;10.70;99.90;;;;;;4998866;28;20048;-60
2023/12/17 01:14:12;;;;;;;10.63;6.40;;;10.70;99.90;;;;;;5006044;28;20128;-60
2023/12/17 01:16:38;;;;;;;12.68;6.47;;;10.70;99.90;;;;;;5006388;28;20049;-60
2023/12/17 01:19:03;;;;;;;12.90;6.07;;;10.70;99.90;;;;;;5005000;28;20067;-60
2023/12/17 01:21:30;;;;;;;12.18;6.50;;;10.70;99.90;;;;;;5008039;28;20040;-59
2023/12/17 01:23:57;;;;;;;16.65;5.90;;;10.70;99.90;;;;;;5006492;28;20038;-60
2023/12/17 01:26:23;;;;;;;14.00;5.15;;;10.70;99.90;;;;;;4986598;28;20080;-60
2023/12/17 01:28:52;;;;;;;16.52;6.68;;;10.70;99.90;;;;;;4987159;28;20046;-60
2023/12/17 01:31:17;;;;;;;17.20;6.25;;;10.80;99.90;;;;;;5004954;28;20045;-60
2023/12/17 01:33:43;;;;;;;15.82;5.20;;;10.70;99.90;;;;;;5001731;28;20092;-60
2023/12/17 01:36:09;;;;;;;13.13;5.38;;;10.80;99.90;;;;;;5006239;28;20057;-60
2023/12/17 01:38:35;;;;;;;11.20;4.90;;;10.70;99.90;;;;;;4984551;28;20053;-60
2023/12/17 01:41:01;;;;;;;12.25;5.80;;;10.80;99.90;;;;;;4983519;28;20099;-60
2023/12/17 01:43:30;;;;;;;13.75;5.38;;;10.80;99.90;;;;;;5005495;28;20062;-60
2023/12/17 01:45:56;;;;;;;13.25;6.75;;;10.80;99.90;;;;;;5005481;28;20428;-60
2023/12/17 01:48:23;;;;;;;11.50;5.60;;;10.70;99.90;;;;;;5003412;28;20049;-60
2023/12/17 01:50:49;;;;;;;12.77;6.65;;;10.70;99.90;;;;;;5004554;28;20053;-60
2023/12/17 01:53:16;;;;;;;15.05;5.88;;;10.70;99.90;;;;;;5004951;28;20077;-60
2023/12/17 01:55:44;;;;;;;11.88;5.85;;;10.70;99.90;;;;;;4989393;28;20050;-60
2023/12/17 01:58:11;;;;;;;14.07;6.28;;;10.70;99.90;;;;;;4991201;28;20125;-60
2023/12/17 02:00:37;;;;;;;17.17;6.65;;;10.70;99.90;;;;;;5007433;28;20050;-59
2023/12/17 02:03:03;;;;;;;13.07;6.00;;;10.70;99.90;;;;;;5007923;28;20084;-59
2023/12/17 02:05:33;;;;;;;14.82;5.85;;;10.70;99.90;;;;;;5008481;28;20456;-59
2023/12/17 02:07:59;;;;;;;17.10;5.70;;;10.70;99.90;;;;;;5007075;28;20056;-59
2023/12/17 02:10:26;;;;;;;14.57;5.82;;;10.70;99.90;;;;;;5005284;28;20048;-60
2023/12/17 02:12:51;;;;;;;18.02;6.30;;;10.70;99.90;;;;;;5006460;28;20429;-59
2023/12/17 02:15:17;;;;;;;13.18;6.38;;;10.70;99.90;;;;;;4998312;28;20045;-60
2023/12/17 02:17:43;;;;;;;10.18;5.15;;;10.70;99.90;;;;;;4969130;28;20046;-60
2023/12/17 02:20:09;;;;;;;16.83;6.47;;;10.60;99.90;;;;;;4991190;28;20042;-60
2023/12/17 02:22:36;;;;;;;12.27;4.95;;;10.70;99.90;;;;;;5006663;28;20092;-60
2023/12/17 02:25:02;;;;;;;14.30;5.55;;;10.60;99.90;;;;;;5004558;28;20041;-60
2023/12/17 02:27:28;;;;;;;9.98;4.80;;;10.60;99.90;;;;;;4988787;28;20180;-60
2023/12/17 02:29:55;;;;;;;15.32;6.07;;;10.70;99.90;;;;;;5004347;28;20154;-60
2023/12/17 02:32:22;;;;;;;13.82;5.35;;;10.60;99.90;;;;;;5001559;28;20045;-60
2023/12/17 02:34:52;;;;;;;15.10;6.43;;;10.70;99.90;;;;;;5006504;28;20580;-59
2023/12/17 02:37:18;;;;;;;14.32;5.28;;;10.70;99.90;;;;;;5005105;28;20069;-59
2023/12/17 02:39:44;;;;;;;14.18;5.13;;;10.70;99.90;;;;;;4987795;28;20076;-60
2023/12/17 02:42:10;;;;;;;15.88;5.20;;;10.70;99.90;;;;;;4998770;28;20028;-59
2023/12/17 02:44:36;;;;;;;12.13;4.72;;;10.70;99.90;;;;;;5005359;28;20041;-59
2023/12/17 02:47:02;;;;;;;12.05;5.03;;;10.60;99.90;;;;;;5005283;28;20505;-60
2023/12/17 02:49:28;;;;;;;13.32;4.60;;;10.60;99.90;;;;;;5002226;28;20049;-59
2023/12/17 02:51:57;;;;;;;13.43;4.57;;;10.70;99.90;;;;;;5001132;28;20048;-59
2023/12/17 02:54:23;;;;;;;11.23;4.78;;;10.60;99.90;;;;;;4999120;28;20049;-59
2023/12/17 02:56:51;;;;;;;9.68;4.20;;;10.70;99.90;;;;;;5004887;28;20053;-59
2023/12/17 02:59:17;;;;;;;13.27;5.28;;;10.60;99.90;;;;;;5003621;28;20045;-60
2023/12/17 03:01:43;;;;;;;15.00;5.15;;;10.60;99.90;;;;;;5003198;28;20041;-59
2023/12/17 03:04:10;;;;;;;13.70;5.72;;;10.60;99.90;;;;;;4986953;28;20060;-60
2023/12/17 03:06:37;;;;;;;9.93;4.38;;;10.60;99.90;;;;;;5004954;28;20050;-59
2023/12/17 03:09:03;;;;;;;13.02;5.13;;;10.60;99.90;;;;;;4985795;28;20540;-59
2023/12/17 03:11:30;;;;;;;14.48;5.40;;;10.70;99.90;;;;;;5004019;28;20476;-59
2023/12/17 03:13:55;;;;;;;17.33;5.65;;;10.70;99.90;;;;;;4982261;28;20088;-60
2023/12/17 03:16:22;;;;;;;11.55;4.82;;;10.70;99.90;;;;;;4988201;28;20041;-60
2023/12/17 03:18:47;;;;;;;11.07;5.35;;;10.70;99.90;;;;;;4984077;28;20050;-59
2023/12/17 03:21:13;;;;;;;10.95;5.10;;;10.70;99.90;;;;;;4998024;28;20485;-60
2023/12/17 03:23:54;;;;;;;8.82;5.13;;;10.70;99.90;;;;;;4998515;28;20209;-59
2023/12/17 03:26:20;;;;;;;11.77;4.72;;;10.70;99.90;;;;;;5003698;28;20076;-59
2023/12/17 03:28:46;;;;;;;12.10;5.10;;;10.70;99.90;;;;;;4985921;28;20515;-59
2023/12/17 03:31:15;;;;;;;13.90;5.82;;;10.70;99.90;;;;;;4987322;28;20042;-60
2023/12/17 03:33:42;;;;;;;20.85;7.38;;;10.70;99.90;;;;;;5002247;28;20129;-60
2023/12/17 03:36:11;;;;;;;12.27;5.90;;;10.70;99.90;;;;;;5004583;28;20515;-59
2023/12/17 03:38:37;;;;;;;11.75;5.60;;;10.60;99.90;;;;;;5004683;28;20054;-59
2023/12/17 03:41:03;;;;;;;13.13;6.10;;;10.60;99.90;;;;;;4979959;28;20042;-59
2023/12/17 03:43:28;;;;;;;12.85;5.07;;;10.50;99.90;;;;;;5000437;28;20481;-59
2023/12/17 03:45:54;;;;;;;21.27;6.28;;;10.50;99.90;;;;;;5001462;28;20589;-59
2023/12/17 03:48:20;;;;;;;14.02;6.75;;;10.50;99.90;;;;;;5002422;28;20174;-60
2023/12/17 03:50:45;;;;;;;14.65;6.22;;;10.50;99.90;;;;;;5002975;28;20049;-59
2023/12/17 03:53:11;;;;;;;17.27;6.78;;;10.50;99.90;;;;;;5004340;28;20038;-59
2023/12/17 03:55:37;;;;;;;12.27;6.05;;;10.50;99.90;;;;;;5002208;28;20040;-60
2023/12/17 03:58:03;;;;;;;12.10;6.22;;;10.50;99.90;;;;;;5001834;28;20049;-59
2023/12/17 04:00:29;;;;;;;14.50;7.00;;;10.40;99.90;;;;;;5005933;28;20236;-59
2023/12/17 04:02:55;;;;;;;12.65;6.25;;;10.40;99.90;;;;;;5004729;28;20383;-60
2023/12/17 04:05:21;;;;;;;12.55;6.35;;;10.50;99.90;;;;;;4990725;28;20421;-59
2023/12/17 04:07:46;;;;;;;15.90;6.10;;;10.50;99.90;;;;;;4983978;28;20485;-59
2023/12/17 04:10:12;;;;;;;16.58;7.20;;;10.40;99.90;;;;;;5006936;28;20049;-59
2023/12/17 04:12:38;;;;;;;15.73;6.35;;;10.40;99.90;;;;;;4987947;28;20141;-59
2023/12/17 04:15:04;;;;;;;18.95;6.97;;;10.40;99.90;;;;;;5005805;28;20493;-59
2023/12/17 04:17:30;;;;;;;15.93;6.88;;;10.40;99.90;;;;;;5008774;28;20034;-59
2023/12/17 04:19:56;;;;;;;14.18;6.38;;;10.40;99.90;;;;;;5016191;28;20125;-59
2023/12/17 04:22:22;;;;;;;16.40;6.65;;;10.40;99.90;;;;;;4985515;28;20154;-60
2023/12/17 04:24:47;;;;;;;15.73;6.53;;;10.40;99.90;;;;;;5004076;28;20358;-60
2023/12/17 04:27:13;;;;;;;14.48;6.82;;;10.40;99.90;;;;;;5000193;28;20088;-59
2023/12/17 04:29:41;;;;;;;13.73;6.65;;;10.40;99.90;;;;;;5004616;28;20054;-59
2023/12/17 04:32:07;;;;;;;13.02;7.10;;;10.40;99.90;;;;;;5002225;28;20038;-59
2023/12/17 04:34:32;;;;;;;12.80;7.15;;;10.40;99.90;;;;;;5008002;28;20052;-60
2023/12/17 04:36:59;;;;;;;14.40;7.28;;;10.30;99.90;;;;;;5005449;28;20124;-59
2023/12/17 04:39:26;;;;;;;12.10;6.65;;;10.30;99.90;;;;;;5006962;28;20184;-59
2023/12/17 04:41:52;;;;;;;16.40;8.25;;;10.30;99.90;;;;;;5006336;28;20045;-60
2023/12/17 04:44:17;;;;;;;17.48;7.88;;;10.40;99.90;;;;;;5019444;28;20073;-59
2023/12/17 04:46:43;;;;;;;17.10;7.78;;;10.30;99.90;;;;;;4990227;28;20505;-60
2023/12/17 04:49:09;;;;;;;15.45;7.30;;;10.30;99.90;;;;;;5007735;28;20120;-60
2023/12/17 04:51:35;;;;;;;16.48;6.70;;;10.30;99.90;;;;;;5005210;28;20037;-60
2023/12/17 04:54:00;;;;;;;18.55;7.57;;;10.30;99.90;;;;;;5006042;28;20045;-60
2023/12/17 04:56:26;;;;;;;19.65;8.25;;;10.30;99.90;;;;;;5006659;28;20042;-59
2023/12/17 04:58:53;;;;;;;19.48;8.85;;;10.30;99.90;;;;;;5005497;28;20049;-60
2023/12/17 05:01:18;;;;;;;17.05;7.47;;;10.30;99.90;;;;;;5003633;28;20109;-59
2023/12/17 05:03:44;;;;;;;14.90;7.00;;;10.30;99.90;;;;;;4981086;28;20112;-60
2023/12/17 05:06:10;;;;;;;17.30;7.80;;;10.30;99.90;;;;;;4989367;28;20042;-60
2023/12/17 05:08:35;;;;;;;26.73;8.75;;;10.30;99.90;;;;;;5005408;28;20728;-60
2023/12/17 05:11:01;;;;;;;18.58;7.43;;;10.20;99.90;;;;;;5005906;28;20045;-59
2023/12/17 05:13:27;;;;;;;16.88;9.02;;;10.30;99.90;;;;;;5007875;28;20142;-59
2023/12/17 05:15:53;;;;;;;22.05;8.32;;;10.20;99.90;;;;;;5005347;28;20184;-59
2023/12/17 05:18:19;;;;;;;13.75;7.72;;;10.30;99.90;;;;;;5005667;28;20124;-60
2023/12/17 05:20:46;;;;;;;17.45;8.02;;;10.30;99.90;;;;;;5005460;28;20146;-60
2023/12/17 05:23:12;;;;;;;15.75;7.88;;;10.20;99.90;;;;;;5006173;28;20416;-60
2023/12/17 05:25:41;;;;;;;17.40;8.00;;;10.20;99.90;;;;;;5022061;28;20125;-60
2023/12/17 05:28:09;;;;;;;17.58;7.68;;;10.20;99.90;;;;;;5005560;28;20073;-59
2023/12/17 05:30:37;;;;;;;15.82;8.23;;;10.30;99.90;;;;;;5020344;28;20046;-60
2023/12/17 05:33:03;;;;;;;14.50;7.70;;;10.30;99.90;;;;;;5002361;28;20049;-60
2023/12/17 05:35:29;;;;;;;12.32;8.13;;;10.30;99.90;;;;;;4983869;28;20520;-60
2023/12/17 05:37:55;;;;;;;22.25;10.02;;;10.30;99.90;;;;;;5005924;28;20073;-60
2023/12/17 05:40:20;;;;;;;17.75;9.45;;;10.30;99.90;;;;;;5004076;28;20045;-60
2023/12/17 05:42:46;;;;;;;18.60;9.07;;;10.30;99.90;;;;;;4970558;28;20154;-60
2023/12/17 05:45:12;;;;;;;20.40;9.32;;;10.30;99.90;;;;;;4988055;28;20053;-60
2023/12/17 05:47:39;;;;;;;17.00;9.48;;;10.30;99.90;;;;;;4990117;28;20642;-60
2023/12/17 05:50:06;;;;;;;15.15;8.73;;;10.30;99.90;;;;;;5001043;28;20064;-60
2023/12/17 05:52:32;;;;;;;19.10;9.02;;;10.30;99.90;;;;;;5005465;28;20049;-60
2023/12/17 05:54:57;;;;;;;15.65;8.70;;;10.30;99.90;;;;;;5006206;28;20149;-60
2023/12/17 05:57:23;;;;;;;15.15;9.00;;;10.30;99.90;;;;;;5005129;28;20728;-60
2023/12/17 05:59:49;;;;;;;15.73;8.98;;;10.30;99.90;;;;;;5004185;28;20091;-60
2023/12/17 06:02:14;;;;;;;19.58;9.32;;;10.30;99.90;;;;;;5004867;28;20034;-60
2023/12/17 06:04:40;;;;;;;25.10;9.55;;;10.30;99.90;;;;;;5004346;28;20661;-60
2023/12/17 06:07:06;;;;;;;18.73;9.18;;;10.30;99.90;;;;;;5006531;28;20034;-59
2023/12/17 06:09:32;;;;;;;18.00;8.95;;;10.30;99.90;;;;;;4987268;28;20157;-59
2023/12/17 06:11:58;;;;;;;20.48;9.90;;;10.30;99.90;;;;;;4989481;28;20056;-60
2023/12/17 06:14:24;;;;;;;17.17;8.77;;;10.30;99.90;;;;;;5006493;28;20139;-60
2023/12/17 06:16:50;;;;;;;21.33;9.90;;;10.30;99.90;;;;;;5005190;28;20045;-59
2023/12/17 06:19:16;;;;;;;24.38;10.77;;;10.30;99.90;;;;;;5003050;28;20034;-60
2023/12/17 06:21:41;;;;;;;26.20;9.95;;;10.30;99.90;;;;;;5005244;28;20050;-60
2023/12/17 06:24:07;;;;;;;19.48;10.05;;;10.30;99.90;;;;;;4985868;28;20050;-60
2023/12/17 06:26:36;;;;;;;24.23;11.35;;;10.30;99.90;;;;;;5004490;28;20041;-59
2023/12/17 06:29:02;;;;;;;22.90;10.00;;;10.30;99.90;;;;;;4996506;28;20072;-60
2023/12/17 06:31:28;;;;;;;18.02;9.82;;;10.30;99.90;;;;;;5014639;28;20539;-60
2023/12/17 06:33:54;;;;;;;18.90;9.63;;;10.30;99.90;;;;;;5003572;28;20108;-59
2023/12/17 06:36:20;;;;;;;25.02;11.00;;;10.30;99.90;;;;;;5015776;28;20129;-60
2023/12/17 06:38:46;;;;;;;23.83;10.13;;;10.30;99.90;;;;;;4999928;28;20037;-60
2023/12/17 06:41:12;;;;;;;23.13;10.02;;;10.30;99.90;;;;;;4998801;28;20107;-60
2023/12/17 06:43:41;;;;;;;19.63;10.18;;;10.30;99.90;;;;;;5000051;28;20050;-60
2023/12/17 06:46:07;;;;;;;23.73;9.93;;;10.30;99.90;;;;;;5005601;28;20105;-60
2023/12/17 06:48:36;;;;;;;19.33;10.27;;;10.30;99.90;;;;;;5002893;28;20124;-59
2023/12/17 06:51:03;;;;;;;21.55;10.77;;;10.30;99.90;;;;;;5003917;28;20709;-60
2023/12/17 06:53:29;;;;;;;20.80;10.68;;;10.30;99.90;;;;;;5003561;28;20054;-60
2023/12/17 06:55:55;;;;;;;16.63;9.27;;;10.30;99.90;;;;;;4985910;28;20052;-59
2023/12/17 06:58:23;;;;;;;20.38;9.80;;;10.30;99.90;;;;;;5003536;28;20393;-59
2023/12/17 07:00:49;;;;;;;26.15;10.07;;;10.30;99.90;;;;;;5002763;28;20096;-60
2023/12/17 07:03:18;;;;;;;20.35;10.43;;;10.30;99.90;;;;;;5001616;28;20049;-60
2023/12/17 07:05:44;;;;;;;20.05;9.57;;;10.30;99.90;;;;;;5004236;28;20092;-60
2023/12/17 07:08:13;;;;;;;21.20;9.48;;;10.30;99.90;;;;;;5004803;28;20460;-60
2023/12/17 07:10:39;;;;;;;21.30;10.55;;;10.30;99.90;;;;;;5003154;28;20124;-60
2023/12/17 07:13:05;;;;;;;20.55;10.35;;;10.30;99.90;;;;;;5006834;28;20095;-60
2023/12/17 07:15:30;;;;;;;24.25;10.60;;;10.30;99.90;;;;;;5003695;28;20060;-60
2023/12/17 07:17:56;;;;;;;19.70;10.55;;;10.30;99.90;;;;;;5002631;28;20190;-60
2023/12/17 07:20:22;;;;;;;22.73;10.45;;;10.30;99.90;;;;;;4984222;28;20049;-60
2023/12/17 07:22:50;;;;;;;22.27;10.65;;;10.30;99.90;;;;;;5004617;28;20264;-60
2023/12/17 07:25:17;;;;;;;19.90;11.20;;;10.30;99.90;;;;;;5003761;28;20112;-60
2023/12/17 07:27:43;;;;;;;23.88;11.15;;;10.30;99.90;;;;;;5004473;28;20054;-60
2023/12/17 07:30:09;;;;;;;24.92;10.63;;;10.30;99.90;;;;;;5004276;28;20044;-60
2023/12/17 07:32:35;;;;;;;27.33;10.73;;;10.30;99.90;;;;;;4998985;28;20137;-60
2023/12/17 07:35:03;;;;;;;29.30;11.40;;;10.30;99.90;;;;;;5004872;28;20124;-60
2023/12/17 07:37:28;;;;;;;27.90;12.82;;;10.30;99.90;;;;;;4985378;28;20499;-60
2023/12/17 07:39:55;;;;;;;28.85;12.50;;;10.30;99.90;;;;;;5004603;28;20183;-60
2023/12/17 07:42:21;;;;;;;32.03;15.45;;;10.30;99.90;;;;;;5002177;28;20405;-60
2023/12/17 07:44:47;;;;;;;35.55;16.50;;;10.30;99.90;;;;;;5001308;28;20034;-60
2023/12/17 07:47:12;;;;;;;30.00;17.52;;;10.30;99.90;;;;;;5005663;28;20133;-60
2023/12/17 07:49:38;;;;;;;33.63;17.13;;;10.30;99.90;;;;;;5001696;28;20053;-60
2023/12/17 07:52:04;;;;;;;37.80;19.02;;;10.30;99.90;;;;;;5004428;28;20044;-60
2023/12/17 07:54:29;;;;;;;37.58;18.77;;;10.30;99.90;;;;;;4985940;28;20132;-60
2023/12/17 07:56:55;;;;;;;33.85;17.92;;;10.30;99.90;;;;;;5002822;28;20076;-60
2023/12/17 07:59:21;;;;;;;38.53;17.08;;;10.30;99.90;;;;;;5011062;28;20037;-59
2023/12/17 08:01:48;;;;;;;42.95;18.27;;;10.30;99.90;;;;;;5003953;28;20042;-59
2023/12/17 08:04:13;;;;;;;26.60;15.52;;;10.20;99.90;;;;;;4986415;28;20050;-60
2023/12/17 08:06:39;;;;;;;28.17;15.13;;;10.20;99.90;;;;;;5002074;28;20053;-60
2023/12/17 08:09:05;;;;;;;28.63;14.13;;;10.20;99.90;;;;;;4998574;28;20050;-60
2023/12/17 08:11:31;;;;;;;29.77;15.07;;;10.20;99.90;;;;;;5003410;28;20101;-60
2023/12/17 08:13:57;;;;;;;28.67;13.70;;;10.20;99.90;;;;;;5002874;28;20371;-59
2023/12/17 08:16:22;;;;;;;26.02;14.00;;;10.20;99.90;;;;;;5004176;28;20041;-60
2023/12/17 08:18:48;;;;;;;31.50;14.85;;;10.20;99.90;;;;;;5003554;28;20675;-60
2023/12/17 08:21:13;;;;;;;27.38;14.43;;;10.20;99.90;;;;;;5003618;28;20050;-60
2023/12/17 08:23:39;;;;;;;26.77;13.02;;;10.20;99.90;;;;;;5002076;28;20041;-60
2023/12/17 08:26:05;;;;;;;25.52;13.70;;;10.10;99.90;;;;;;5001255;28;20612;-60
2023/12/17 08:28:31;;;;;;;19.50;12.57;;;10.10;99.90;;;;;;5002983;28;20046;-60
2023/12/17 08:30:56;;;;;;;34.97;14.13;;;10.10;99.90;;;;;;4999491;28;20815;-60
2023/12/17 08:33:22;;;;;;;32.03;14.10;;;10.20;99.90;;;;;;5004040;28;20038;-60
2023/12/17 08:35:48;;;;;;;26.48;14.60;;;10.10;99.90;;;;;;4983013;28;20423;-60
2023/12/17 08:38:13;;;;;;;31.85;13.52;;;10.10;99.90;;;;;;5000295;28;20099;-60
2023/12/17 08:40:40;;;;;;;31.13;14.23;;;10.10;99.90;;;;;;4981837;28;20072;-60
2023/12/17 08:43:12;;;;;;;33.90;14.60;;;10.10;99.90;;;;;;5004086;28;20108;-59
2023/12/17 08:45:38;;;;;;;37.10;15.90;;;10.10;99.90;;;;;;5012074;28;20042;-60
2023/12/17 08:48:04;;;;;;;29.08;13.48;;;10.10;99.90;;;;;;4997751;28;20037;-60
2023/12/17 08:50:30;;;;;;;29.80;14.45;;;10.10;99.90;;;;;;5006965;28;20037;-60
2023/12/17 08:52:56;;;;;;;29.10;12.52;;;10.10;99.90;;;;;;5007193;28;20077;-61
2023/12/17 08:55:22;;;;;;;34.50;12.73;;;10.10;99.90;;;;;;4990586;28;20045;-60
2023/12/17 08:57:47;;;;;;;32.45;13.00;;;10.10;99.90;;;;;;5009555;28;20471;-60
2023/12/17 09:00:16;;;;;;;31.98;12.70;;;10.00;99.90;;;;;;5008286;28;20074;-60
2023/12/17 09:02:42;;;;;;;32.33;12.65;;;10.10;99.90;;;;;;4992214;28;20042;-60
2023/12/17 09:05:08;;;;;;;35.58;12.18;;;10.10;99.90;;;;;;5004520;28;20054;-60
2023/12/17 09:07:34;;;;;;;33.25;11.68;;;10.10;99.90;;;;;;5004003;28;20710;-60
2023/12/17 09:10:01;;;;;;;32.03;11.50;;;10.10;99.90;;;;;;4988449;28;20042;-60
2023/12/17 09:12:26;;;;;;;31.77;10.50;;;10.10;99.90;;;;;;5008633;28;20156;-60
2023/12/17 09:14:52;;;;;;;29.88;10.45;;;10.10;99.90;;;;;;4968771;28;20049;-60
2023/12/17 09:17:18;;;;;;;29.77;10.45;;;10.20;99.90;;;;;;5000895;28;20068;-60
2023/12/17 09:19:44;;;;;;;33.70;11.55;;;10.20;99.90;;;;;;5002325;28;20045;-60
2023/12/17 09:22:10;;;;;;;27.48;11.13;;;10.20;99.90;;;;;;5008221;28;20042;-60
2023/12/17 09:24:35;;;;;;;28.85;11.50;;;10.20;99.90;;;;;;5005096;28;20565;-60
2023/12/17 09:27:04;;;;;;;27.02;10.65;;;10.20;99.90;;;;;;5005677;28;20615;-60
2023/12/17 09:29:30;;;;;;;29.52;10.23;;;10.20;99.90;;;;;;4983509;28;20149;-60
2023/12/17 09:31:56;;;;;;;22.80;10.80;;;10.20;99.90;;;;;;5003700;28;20121;-60
2023/12/17 09:34:21;;;;;;;27.92;10.80;;;10.30;99.90;;;;;;5003689;28;20049;-60
2023/12/17 09:36:47;;;;;;;23.65;11.23;;;10.30;99.90;;;;;;4985381;28;20037;-60
2023/12/17 09:39:13;;;;;;;23.27;11.60;;;10.30;99.90;;;;;;4983365;28;20068;-60
2023/12/17 09:41:41;;;;;;;23.60;10.27;;;10.30;99.90;;;;;;4989719;28;20052;-61
2023/12/17 09:44:07;;;;;;;27.35;10.65;;;10.30;99.90;;;;;;5003291;28;20136;-60
2023/12/17 09:46:35;;;;;;;26.98;10.63;;;10.30;99.90;;;;;;5003834;28;20048;-60
2023/12/17 09:49:01;;;;;;;29.77;10.40;;;10.30;99.90;;;;;;5000590;28;20111;-60
2023/12/17 09:51:28;;;;;;;30.02;10.88;;;10.30;99.90;;;;;;4985924;28;20771;-60
2023/12/17 09:53:56;;;;;;;27.23;10.57;;;10.30;99.90;;;;;;5006055;28;20038;-60
2023/12/17 09:56:22;;;;;;;27.92;11.35;;;10.30;99.90;;;;;;5001684;28;20073;-60
2023/12/17 09:58:47;;;;;;;25.80;11.27;;;10.30;99.90;;;;;;5005511;28;20486;-60
2023/12/17 10:01:13;;;;;;;24.63;11.70;;;10.30;99.90;;;;;;5004356;28;20036;-60
2023/12/17 10:03:40;;;;;;;30.17;11.63;;;10.30;99.90;;;;;;5005848;28;20038;-60
2023/12/17 10:06:06;;;;;;;26.45;10.65;;;10.30;99.90;;;;;;5004092;28;20042;-60
2023/12/17 10:08:33;;;;;;;25.25;11.18;;;10.30;99.90;;;;;;5000504;28;20053;-60
2023/12/17 10:10:58;;;;;;;23.10;10.73;;;10.30;99.90;;;;;;4989825;28;20724;-60
2023/12/17 10:13:24;;;;;;;28.73;11.65;;;10.30;99.90;;;;;;5002019;28;20038;-60
2023/12/17 10:15:54;;;;;;;31.70;13.05;;;10.30;99.90;;;;;;5001126;28;20038;-60
2023/12/17 10:18:20;;;;;;;32.72;13.63;;;10.30;99.90;;;;;;5004564;28;20042;-60
2023/12/17 10:20:47;;;;;;;28.33;12.65;;;10.30;99.90;;;;;;5003350;28;20056;-60
2023/12/17 10:23:14;;;;;;;36.88;15.68;;;10.30;99.90;;;;;;5004164;28;20104;-60
2023/12/17 10:25:41;;;;;;;30.52;14.00;;;10.30;99.90;;;;;;5002884;28;20140;-60
2023/12/17 10:28:10;;;;;;;32.45;15.18;;;10.30;99.90;;;;;;5003074;28;20042;-60
2023/12/17 10:30:36;;;;;;;33.30;15.65;;;10.30;99.90;;;;;;5000982;28;20765;-60
2023/12/17 10:33:05;;;;;;;30.77;16.02;;;10.30;99.90;;;;;;5003530;28;20057;-60
2023/12/17 10:35:31;;;;;;;37.42;17.50;;;10.30;99.90;;;;;;5006802;28;20040;-60
2023/12/17 10:38:03;;;;;;;32.20;18.00;;;10.30;99.90;;;;;;5000507;28;20045;-60
2023/12/17 10:40:30;;;;;;;32.28;16.77;;;10.30;99.90;;;;;;5005717;28;20033;-60
2023/12/17 10:42:57;;;;;;;29.35;17.13;;;10.30;99.90;;;;;;5004408;28;20146;-60
2023/12/17 10:45:24;;;;;;;33.70;17.75;;;10.30;99.90;;;;;;5002423;28;20476;-60
2023/12/17 10:47:56;;;;;;;35.38;17.40;;;10.30;99.90;;;;;;5003737;28;20539;-59
2023/12/17 10:50:23;;;;;;;40.55;17.85;;;10.30;99.90;;;;;;5004320;28;20048;-60
2023/12/17 10:52:49;;;;;;;33.67;16.80;;;10.30;99.90;;;;;;5003946;28;20050;-60
2023/12/17 10:55:16;;;;;;;36.63;17.20;;;10.30;99.90;;;;;;5002213;28;20034;-61
2023/12/17 10:57:51;;;;;;;33.35;17.20;;;10.30;99.90;;;;;;5002116;28;20061;-60
2023/12/17 11:00:21;;;;;;;33.28;17.35;;;10.30;99.90;;;;;;5001226;28;20042;-60
2023/12/17 11:02:50;;;;;;;28.73;15.15;;;10.30;99.90;;;;;;5000315;28;20389;-60
2023/12/17 11:05:16;;;;;;;27.60;15.25;;;10.30;99.90;;;;;;4977759;28;20501;-60
2023/12/17 11:07:42;;;;;;;33.63;15.60;;;10.30;99.90;;;;;;4981561;28;20065;-60
2023/12/17 11:10:11;;;;;;;29.92;15.35;;;10.30;99.90;;;;;;4979129;28;20096;-60
2023/12/17 11:12:36;;;;;;;27.75;15.27;;;10.30;99.90;;;;;;4995979;28;20712;-60
2023/12/17 11:15:02;;;;;;;31.85;13.82;;;10.30;99.90;;;;;;4998966;28;20173;-59
2023/12/17 11:17:31;;;;;;;32.63;14.55;;;10.30;99.90;;;;;;4981676;28;20396;-60
2023/12/17 11:20:02;;;;;;;29.10;13.55;;;10.30;99.90;;;;;;5002426;28;20092;-60
2023/12/17 11:22:28;;;;;;;26.75;14.52;;;10.30;99.90;;;;;;4997447;28;20121;-61
2023/12/17 11:24:56;;;;;;;32.85;14.55;;;10.30;99.90;;;;;;4997766;28;20045;-61
2023/12/17 11:27:23;;;;;;;33.20;14.60;;;10.30;99.90;;;;;;5001271;28;20054;-60
2023/12/17 11:29:50;;;;;;;26.70;14.30;;;10.30;99.90;;;;;;4999805;28;20056;-60
2023/12/17 11:32:20;;;;;;;25.55;13.85;;;10.40;99.90;;;;;;5000268;28;20434;-60
2023/12/17 11:34:48;;;;;;;27.48;15.35;;;10.40;99.90;;;;;;5000557;28;20504;-61
2023/12/17 11:37:23;;;;;;;25.77;13.57;;;10.30;99.90;;;;;;4997583;28;20038;-60
2023/12/17 11:39:51;;;;;;;31.42;14.75;;;10.30;99.90;;;;;;5001084;28;20037;-60
2023/12/17 11:42:21;;;;;;;28.80;15.07;;;10.40;99.90;;;;;;5000533;28;20045;-61
2023/12/17 11:44:51;;;;;;;28.45;13.57;;;10.40;99.90;;;;;;4998496;28;20042;-60
2023/12/17 11:47:23;;;;;;;33.15;14.00;;;10.30;99.90;;;;;;5001166;28;20057;-60
2023/12/17 11:49:49;;;;;;;26.17;13.68;;;10.40;99.90;;;;;;4998131;28;20481;-61
2023/12/17 11:52:18;;;;;;;23.02;13.55;;;10.40;99.90;;;;;;5001686;28;20042;-61
2023/12/17 11:54:44;;;;;;;28.38;14.02;;;10.40;99.90;;;;;;4998353;28;20083;-60
2023/12/17 11:57:21;;;;;;;22.45;14.60;;;10.40;99.90;;;;;;4977682;28;20041;-61
2023/12/17 11:59:47;;;;;;;32.85;15.50;;;10.40;99.90;;;;;;4997347;28;20042;-61
2023/12/17 12:02:17;;;;;;;27.70;15.48;;;10.50;99.90;;;;;;4997355;28;20052;-60
2023/12/17 12:04:44;;;;;;;26.23;15.77;;;10.50;99.90;;;;;;4997773;28;20142;-60
2023/12/17 12:07:11;;;;;;;27.42;15.70;;;10.50;99.90;;;;;;4999599;28;20046;-60
2023/12/17 12:09:37;;;;;;;33.67;15.93;;;10.50;99.90;;;;;;4980648;28;20042;-61
2023/12/17 12:12:21;;;;;;;22.33;16.08;;;10.50;99.90;;;;;;4995297;28;20069;-61
2023/12/17 12:14:48;;;;;;;27.70;16.45;;;10.50;99.90;;;;;;4998264;28;20060;-60
2023/12/17 12:17:40;;;;;;;29.60;17.42;;;10.50;99.90;;;;;;4996324;28;20069;-61
2023/12/17 12:20:08;;;;;;;25.75;17.33;;;10.40;99.90;;;;;;4997787;28;20444;-60
2023/12/17 12:22:39;;;;;;;27.50;16.90;;;10.40;99.90;;;;;;4997516;28;20046;-61
2023/12/17 12:25:05;;;;;;;28.05;16.60;;;10.40;99.90;;;;;;4999928;28;20042;-60
2023/12/17 12:27:31;;;;;;;27.08;17.83;;;10.30;99.90;;;;;;5004596;28;20041;-60
2023/12/17 12:29:57;;;;;;;24.17;17.95;;;10.30;99.90;;;;;;5016539;28;20034;-60